Time;durP1;ratioP1;P1;durP2;ratioP2;P2;SDS_P1;SDS_P2;PMS_P1;PMS_P2;Temp;Humidity;BMP_temperature;BMP_pressure;BME280_temperature;BME280_humidity;BME280_pressure;Samples;Min_cycle;Max_cycle;Signal;HPM_P1;HPM_P2
2022/02/11 00:09:04;;;;;;;5.82;1.33;;;2.10;90.90;;;;;;5033905;28;20033;-75
2022/02/11 00:11:37;;;;;;;2.63;1.38;;;2.10;90.90;;;;;;5033798;28;20022;-76
2022/02/11 00:14:05;;;;;;;3.80;1.23;;;2.10;91.00;;;;;;5015780;28;20503;-77
2022/02/11 00:16:34;;;;;;;2.65;1.23;;;2.10;90.90;;;;;;5033448;28;20033;-78
2022/02/11 00:19:00;;;;;;;2.45;1.50;;;2.10;90.90;;;;;;5033642;28;20545;-76
2022/02/11 00:21:29;;;;;;;3.33;1.30;;;2.10;90.70;;;;;;5033529;28;20029;-77
2022/02/11 00:23:57;;;;;;;3.55;2.20;;;2.00;90.40;;;;;;5033600;28;20029;-78
2022/02/11 00:26:31;;;;;;;4.47;1.40;;;1.90;90.50;;;;;;5033663;28;20052;-76
2022/02/11 00:34:26;;;;;;;2.30;1.10;;;2.00;90.40;;;;;;5014131;28;20025;-76
2022/02/11 00:37:14;;;;;;;4.60;1.75;;;2.00;90.40;;;;;;5013837;28;20116;-74
2022/02/11 01:04:13;;;;;;;6.00;1.42;;;2.00;90.10;;;;;;5033103;28;20032;-79
2022/02/11 01:06:40;;;;;;;7.97;1.77;;;2.00;90.00;;;;;;5032870;28;20045;-76
2022/02/11 01:09:07;;;;;;;5.03;1.52;;;2.00;89.60;;;;;;5033020;28;20025;-76
2022/02/11 01:11:43;;;;;;;3.97;1.85;;;2.00;89.70;;;;;;5033860;28;20332;-76
2022/02/11 01:14:09;;;;;;;6.43;1.95;;;2.00;89.70;;;;;;5034868;28;20053;-76
2022/02/11 01:16:58;;;;;;;5.75;2.05;;;2.00;89.70;;;;;;5015212;28;20068;-77
2022/02/11 01:19:30;;;;;;;4.63;2.08;;;1.90;89.30;;;;;;5032262;28;20399;-76
2022/02/11 01:22:48;;;;;;;13.30;2.60;;;1.90;89.60;;;;;;5032745;28;20060;-76
2022/02/11 01:25:08;;;;;;;4.40;1.73;;;1.90;89.50;;;;;;5026779;28;20132;-78
2022/02/11 01:38:31;;;;;;;5.88;1.85;;;1.90;89.40;;;;;;5012928;28;20494;-76
2022/02/11 01:44:05;;;;;;;2.17;1.33;;;1.90;89.20;;;;;;5012909;28;20080;-76
2022/02/11 02:11:25;;;;;;;7.35;1.90;;;1.80;89.50;;;;;;5012356;28;20025;-76
2022/02/11 02:19:51;;;;;;;5.93;2.92;;;1.70;89.50;;;;;;5012824;28;20014;-75
2022/02/11 02:37:18;;;;;;;5.75;1.50;;;1.70;89.80;;;;;;5012290;28;20022;-74
2022/02/11 03:51:26;;;;;;;5.78;2.08;;;1.60;90.40;;;;;;5024946;28;20047;-76
2022/02/11 04:24:11;;;;;;;6.32;3.13;;;1.60;90.60;;;;;;5033550;28;20033;-77
2022/02/11 04:55:48;;;;;;;5.25;1.77;;;1.70;90.70;;;;;;5002239;28;20033;-75
2022/02/11 05:00:58;;;;;;;8.20;1.98;;;1.70;90.70;;;;;;5032509;28;20541;-78
2022/02/11 05:03:24;;;;;;;8.60;2.67;;;1.70;90.70;;;;;;5032483;28;20054;-76
2022/02/11 05:05:49;;;;;;;3.67;1.65;;;1.70;90.60;;;;;;5032964;28;20085;-76
2022/02/11 05:08:27;;;;;;;3.38;1.38;;;1.60;90.60;;;;;;5032801;28;20053;-78
2022/02/11 05:10:55;;;;;;;7.68;3.03;;;1.60;90.60;;;;;;5032922;28;20108;-76
2022/02/11 05:13:22;;;;;;;4.78;1.77;;;1.60;90.70;;;;;;5015178;28;20041;-76
2022/02/11 05:15:48;;;;;;;6.90;2.25;;;1.60;90.60;;;;;;5032776;28;20029;-76
2022/02/11 05:18:17;;;;;;;6.68;2.92;;;1.60;90.60;;;;;;5032619;28;20086;-77
2022/02/11 05:20:43;;;;;;;7.32;2.25;;;1.60;90.70;;;;;;5032360;28;20474;-78
2022/02/11 05:23:10;;;;;;;6.30;2.70;;;1.60;90.70;;;;;;5032416;28;20037;-77
2022/02/11 05:25:37;;;;;;;5.55;2.03;;;1.60;90.80;;;;;;5032478;28;20018;-77
2022/02/11 05:28:04;;;;;;;5.68;2.45;;;1.60;90.80;;;;;;5014776;28;20034;-77
2022/02/11 05:30:30;;;;;;;7.82;2.65;;;1.60;90.80;;;;;;5032501;28;20026;-77
2022/02/11 05:33:04;;;;;;;9.10;2.97;;;1.60;90.70;;;;;;5025470;28;20148;-78
2022/02/11 05:35:31;;;;;;;5.35;2.72;;;1.70;90.80;;;;;;5013349;28;20022;-78
2022/02/11 05:37:57;;;;;;;7.38;2.15;;;1.70;90.90;;;;;;5012594;28;20068;-78
2022/02/11 05:40:23;;;;;;;5.88;2.28;;;1.70;90.90;;;;;;5012351;28;20447;-76
2022/02/11 05:42:49;;;;;;;7.78;2.30;;;1.70;90.80;;;;;;5012514;28;20060;-78
2022/02/11 05:45:15;;;;;;;6.68;2.70;;;1.80;90.90;;;;;;4997152;28;20057;-79
2022/02/11 05:47:41;;;;;;;8.45;3.22;;;1.70;90.80;;;;;;5032194;28;20386;-77
2022/02/11 05:50:08;;;;;;;6.38;3.42;;;1.70;90.90;;;;;;5031690;28;20100;-78
2022/02/11 05:52:34;;;;;;;7.78;2.63;;;1.80;91.00;;;;;;5032191;28;20592;-75
2022/02/11 05:55:01;;;;;;;11.45;2.95;;;1.80;90.90;;;;;;5032001;28;20025;-76
2022/02/11 05:57:27;;;;;;;10.90;3.88;;;1.80;91.20;;;;;;5013814;28;20658;-78
2022/02/11 05:59:54;;;;;;;8.02;2.85;;;1.80;90.90;;;;;;5014322;28;20022;-77
2022/02/11 06:02:20;;;;;;;5.22;2.50;;;1.80;90.80;;;;;;5013566;28;20033;-76
2022/02/11 06:04:47;;;;;;;8.18;3.15;;;1.70;90.90;;;;;;5019460;28;20391;-77
2022/02/11 06:07:12;;;;;;;7.80;3.55;;;1.80;91.00;;;;;;5012312;28;20112;-77
2022/02/11 06:09:38;;;;;;;7.28;3.10;;;1.80;91.00;;;;;;4994348;28;20446;-76
2022/02/11 06:12:04;;;;;;;5.93;3.67;;;1.80;91.10;;;;;;5012134;28;20156;-77
2022/02/11 06:14:31;;;;;;;6.32;2.58;;;1.90;91.10;;;;;;5026158;28;20057;-77
2022/02/11 06:16:56;;;;;;;12.40;2.95;;;1.90;91.00;;;;;;5031994;28;20036;-77
2022/02/11 06:19:22;;;;;;;7.05;4.15;;;1.90;90.90;;;;;;5013777;28;20021;-78
2022/02/11 06:21:48;;;;;;;7.78;2.80;;;1.90;91.00;;;;;;5031590;28;20506;-77
2022/02/11 06:24:14;;;;;;;9.57;3.28;;;1.90;91.00;;;;;;5031516;28;20677;-77
2022/02/11 06:26:41;;;;;;;5.18;2.72;;;1.90;91.10;;;;;;5031628;28;20018;-77
2022/02/11 06:29:07;;;;;;;;;;;2.00;91.00;;;;;;5032002;28;20021;-77
2022/02/11 06:31:33;;;;;;;6.82;2.70;;;2.00;91.00;;;;;;5031270;28;19909;-77
2022/02/11 06:33:59;;;;;;;6.32;2.85;;;1.90;91.00;;;;;;5031807;28;20026;-78
2022/02/11 06:36:25;;;;;;;13.75;4.28;;;1.90;91.00;;;;;;5031521;28;20028;-76
2022/02/11 06:38:51;;;;;;;11.68;3.75;;;2.00;91.00;;;;;;5031569;28;20030;-76
2022/02/11 06:41:17;;;;;;;6.72;2.97;;;2.00;91.10;;;;;;5031263;28;20021;-78
2022/02/11 06:43:43;;;;;;;9.88;3.30;;;2.00;91.00;;;;;;5031396;28;20037;-80
2022/02/11 06:46:09;;;;;;;12.43;3.63;;;2.00;90.90;;;;;;5031421;28;20029;-78
2022/02/11 06:48:35;;;;;;;9.00;2.78;;;2.10;91.00;;;;;;5031271;28;20022;-77
2022/02/11 06:51:00;;;;;;;7.93;3.40;;;2.20;91.00;;;;;;5031426;28;20021;-78
2022/02/11 06:53:26;;;;;;;8.70;3.10;;;2.20;91.00;;;;;;5012917;28;20383;-75
2022/02/11 06:55:52;;;;;;;7.22;3.00;;;2.30;90.90;;;;;;5031228;28;20034;-77
2022/02/11 06:58:20;;;;;;;8.40;3.10;;;2.30;90.70;;;;;;5031016;28;20041;-76
2022/02/11 07:00:48;;;;;;;10.70;4.68;;;2.40;90.70;;;;;;5013691;28;20025;-76
2022/02/11 07:03:15;;;;;;;17.20;5.00;;;2.40;90.70;;;;;;5031329;28;20045;-78
2022/02/11 07:05:41;;;;;;;10.63;4.65;;;2.30;90.50;;;;;;5018272;28;20521;-79
2022/02/11 07:08:07;;;;;;;10.95;4.68;;;2.40;90.70;;;;;;5029825;28;20025;-81
2022/02/11 07:10:33;;;;;;;18.15;3.65;;;2.50;90.60;;;;;;5030592;28;20018;-79
2022/02/11 07:13:00;;;;;;;12.95;5.65;;;2.50;90.40;;;;;;5002240;28;20490;-85
2022/02/11 07:15:26;;;;;;;10.23;3.95;;;2.60;90.50;;;;;;5030417;28;20064;-82
2022/02/11 07:17:52;;;;;;;11.18;4.70;;;2.70;90.50;;;;;;5013970;28;20430;-80
2022/02/11 07:20:18;;;;;;;14.30;4.95;;;2.80;90.20;;;;;;5031537;28;20041;-80
2022/02/11 07:22:44;;;;;;;12.85;4.30;;;2.80;90.20;;;;;;5030536;28;20407;-81
2022/02/11 07:25:12;;;;;;;6.72;3.17;;;3.00;90.20;;;;;;5033840;28;20017;-80
2022/02/11 07:27:39;;;;;;;12.80;4.22;;;3.20;89.70;;;;;;5035905;28;20076;-80
2022/02/11 07:30:06;;;;;;;7.05;4.35;;;3.20;89.20;;;;;;5039069;28;20018;-82
2022/02/11 07:32:33;;;;;;;8.38;3.15;;;3.30;89.10;;;;;;5038213;28;20033;-82
2022/02/11 07:35:00;;;;;;;7.55;4.03;;;3.40;88.70;;;;;;5037363;28;20029;-82
2022/02/11 07:37:26;;;;;;;8.10;4.40;;;3.50;88.80;;;;;;5035477;28;20052;-81
2022/02/11 07:39:53;;;;;;;11.20;3.35;;;3.60;88.50;;;;;;5016635;28;20419;-81
2022/02/11 07:42:20;;;;;;;8.30;3.47;;;3.70;87.80;;;;;;5035961;28;20040;-81
2022/02/11 07:44:46;;;;;;;12.00;3.60;;;3.50;87.60;;;;;;5039187;28;20072;-81
2022/02/11 07:47:12;;;;;;;7.32;4.00;;;3.60;87.90;;;;;;5035883;28;20064;-82
2022/02/11 07:49:37;;;;;;;11.70;4.45;;;3.60;87.60;;;;;;5018675;28;20377;-81
2022/02/11 07:52:05;;;;;;;7.75;3.50;;;3.70;87.40;;;;;;4997486;28;20410;-82
2022/02/11 07:54:31;;;;;;;14.45;5.00;;;3.60;87.00;;;;;;5015021;28;20026;-82
2022/02/11 07:56:57;;;;;;;11.93;4.45;;;3.60;87.50;;;;;;5007012;28;20061;-85
2022/02/11 07:59:23;;;;;;;9.82;5.05;;;3.50;87.10;;;;;;5034713;28;20021;-82
2022/02/11 08:01:49;;;;;;;9.05;5.00;;;3.50;87.20;;;;;;5034877;28;20041;-83
2022/02/11 08:04:18;;;;;;;13.52;4.88;;;3.50;87.30;;;;;;5034870;28;20078;-84
2022/02/11 08:06:44;;;;;;;14.48;4.72;;;3.40;87.50;;;;;;5017140;28;20037;-83
2022/02/11 08:09:09;;;;;;;13.82;4.90;;;3.50;87.40;;;;;;5035046;28;20017;-82
2022/02/11 08:11:35;;;;;;;13.40;4.68;;;3.50;87.60;;;;;;5036161;28;20316;-82
2022/02/11 08:14:02;;;;;;;14.77;5.07;;;3.70;87.60;;;;;;5035879;28;20045;-82
2022/02/11 08:16:31;;;;;;;8.32;3.08;;;3.80;87.30;;;;;;5023200;28;20203;-82
2022/02/11 08:18:58;;;;;;;8.40;3.80;;;3.90;86.30;;;;;;5035557;28;20026;-81
2022/02/11 08:21:24;;;;;;;10.77;3.90;;;3.90;86.30;;;;;;5034851;28;20029;-80
2022/02/11 08:23:53;;;;;;;11.25;4.43;;;3.90;86.70;;;;;;5034643;28;20080;-82
2022/02/11 08:26:19;;;;;;;11.63;4.32;;;3.90;86.60;;;;;;5034629;28;20110;-82
2022/02/11 08:28:45;;;;;;;8.57;4.95;;;4.00;86.60;;;;;;5034522;28;20518;-83
2022/02/11 08:31:11;;;;;;;12.60;4.50;;;4.20;86.60;;;;;;5033303;28;20104;-85
2022/02/11 08:33:37;;;;;;;16.02;6.32;;;4.40;86.30;;;;;;5034304;28;20061;-82
2022/02/11 08:36:03;;;;;;;15.20;3.92;;;4.60;85.90;;;;;;5033787;28;20530;-81
2022/02/11 08:38:29;;;;;;;7.95;5.63;;;4.70;84.40;;;;;;5016567;28;20033;-83
2022/02/11 08:40:55;;;;;;;12.98;5.15;;;4.60;84.40;;;;;;5034490;28;20368;-83
2022/02/11 08:43:21;;;;;;;10.23;5.30;;;4.70;84.20;;;;;;5033124;28;20056;-81
2022/02/11 08:45:48;;;;;;;13.05;5.95;;;4.60;84.00;;;;;;5034515;28;20421;-81
2022/02/11 08:48:15;;;;;;;8.13;4.28;;;4.60;84.20;;;;;;5018063;28;20364;-82
2022/02/11 08:50:43;;;;;;;15.37;4.33;;;4.60;84.10;;;;;;5005113;28;20397;-82
2022/02/11 08:53:10;;;;;;;5.60;3.33;;;4.60;83.80;;;;;;5035157;28;20060;-84
2022/02/11 08:55:37;;;;;;;9.63;4.47;;;4.60;83.80;;;;;;5015149;28;20490;-83
2022/02/11 08:58:06;;;;;;;10.02;4.70;;;4.70;84.00;;;;;;5033671;28;20040;-84
2022/02/11 09:00:32;;;;;;;9.77;4.60;;;4.80;83.70;;;;;;5034323;28;20065;-82
2022/02/11 09:02:59;;;;;;;9.80;4.22;;;4.90;83.50;;;;;;5033765;28;20038;-81
2022/02/11 09:05:27;;;;;;;8.02;4.03;;;4.90;83.10;;;;;;5033595;28;20079;-81
2022/02/11 09:07:59;;;;;;;9.68;4.40;;;4.90;82.30;;;;;;5016191;28;20033;-82
2022/02/11 09:10:26;;;;;;;12.80;4.82;;;4.60;82.80;;;;;;5032867;28;20474;-84
2022/02/11 09:12:53;;;;;;;18.05;4.85;;;4.70;83.50;;;;;;5033528;28;20061;-81
2022/02/11 09:15:21;;;;;;;13.20;5.95;;;4.70;83.20;;;;;;5033304;28;20100;-83
2022/02/11 09:17:48;;;;;;;8.43;5.38;;;4.80;83.30;;;;;;5033396;28;20025;-82
2022/02/11 09:20:15;;;;;;;16.33;5.45;;;5.00;83.10;;;;;;5033553;28;20030;-83
2022/02/11 09:22:40;;;;;;;9.75;5.05;;;5.10;82.60;;;;;;5033986;28;20132;-80
2022/02/11 09:25:07;;;;;;;11.27;5.05;;;5.20;82.00;;;;;;5033880;28;20097;-82
2022/02/11 09:27:35;;;;;;;10.52;5.22;;;5.20;81.80;;;;;;5016910;28;20022;-81
2022/02/11 09:30:01;;;;;;;9.70;4.18;;;5.30;81.80;;;;;;5033176;28;20026;-83
2022/02/11 09:32:27;;;;;;;15.15;4.53;;;5.50;81.20;;;;;;5033448;28;20033;-80
2022/02/11 09:34:52;;;;;;;11.32;6.88;;;5.80;81.00;;;;;;5032759;28;20029;-81
2022/02/11 09:37:18;;;;;;;9.40;4.13;;;6.30;80.00;;;;;;5015073;28;20029;-82
2022/02/11 09:39:44;;;;;;;15.73;4.70;;;6.60;78.50;;;;;;5015277;28;20070;-82
2022/02/11 09:42:11;;;;;;;12.68;5.03;;;6.40;76.60;;;;;;5032773;28;20499;-83
2022/02/11 09:44:38;;;;;;;12.65;7.20;;;6.10;77.10;;;;;;5015250;28;20033;-83
2022/02/11 09:47:04;;;;;;;9.05;3.88;;;5.90;77.80;;;;;;5016837;28;20074;-83
2022/02/11 09:49:32;;;;;;;14.57;4.65;;;5.60;78.40;;;;;;5034722;28;20363;-80
2022/02/11 09:51:58;;;;;;;5.70;3.55;;;5.30;79.40;;;;;;5038959;28;20021;-80
2022/02/11 09:54:24;;;;;;;13.45;5.65;;;5.20;80.30;;;;;;5027748;28;20037;-81
2022/02/11 09:56:51;;;;;;;10.45;3.55;;;5.30;80.80;;;;;;5043757;28;20073;-80
2022/02/11 09:59:18;;;;;;;8.85;3.40;;;5.50;80.30;;;;;;5037515;28;20029;-82
2022/02/11 10:01:45;;;;;;;9.55;4.38;;;5.60;79.60;;;;;;5017935;28;20033;-81
2022/02/11 10:04:14;;;;;;;9.88;3.92;;;5.70;79.20;;;;;;5017810;28;20029;-83
2022/02/11 10:06:40;;;;;;;11.88;3.60;;;5.80;78.60;;;;;;5037433;28;20064;-82
2022/02/11 10:09:06;;;;;;;10.77;4.68;;;5.80;78.50;;;;;;5023916;28;20391;-80
2022/02/11 10:11:32;;;;;;;11.15;4.20;;;5.80;78.50;;;;;;5017185;28;20025;-80
2022/02/11 10:14:35;;;;;;;7.85;4.75;;;5.60;78.50;;;;;;5032579;28;20149;-82
2022/02/11 10:17:04;;;;;;;6.55;3.63;;;5.80;79.20;;;;;;5014467;28;20343;-82
2022/02/11 10:19:55;;;;;;;13.75;5.43;;;6.00;78.30;;;;;;5013385;28;20083;-82
2022/02/11 10:22:28;;;;;;;11.80;3.22;;;6.30;77.10;;;;;;5032875;28;20036;-82
2022/02/11 10:24:56;;;;;;;11.07;4.05;;;6.20;75.40;;;;;;5032188;28;20064;-82
2022/02/11 10:27:48;;;;;;;7.22;2.83;;;6.10;74.30;;;;;;5014329;28;20352;-82
2022/02/11 10:30:14;;;;;;;8.65;3.03;;;5.80;74.70;;;;;;5010188;28;20487;-83
2022/02/11 10:32:52;;;;;;;11.85;3.38;;;5.40;75.00;;;;;;5014460;28;20430;-83
2022/02/11 10:35:26;;;;;;;8.95;3.08;;;5.00;75.90;;;;;;5031128;28;20021;-82
2022/02/11 10:38:07;;;;;;;10.57;4.40;;;4.90;76.70;;;;;;5014566;28;20104;-81
2022/02/11 10:40:35;;;;;;;10.57;3.55;;;4.90;77.10;;;;;;5032730;28;20049;-81
2022/02/11 10:43:01;;;;;;;;;;;5.00;77.70;;;;;;5032651;28;20091;-83
2022/02/11 10:45:39;;;;;;;7.90;3.47;;;5.10;77.80;;;;;;5017610;28;19905;-83
2022/02/11 10:48:12;;;;;;;6.88;4.25;;;5.30;76.20;;;;;;4990431;28;20035;-82
2022/02/11 10:50:40;;;;;;;9.80;3.50;;;5.10;76.20;;;;;;4981989;28;20034;-83
2022/02/11 10:53:08;;;;;;;7.28;3.20;;;5.10;76.60;;;;;;4974394;28;20117;-84
2022/02/11 10:55:45;;;;;;;;;;;5.10;76.70;;;;;;4974670;28;20038;-82
2022/02/11 10:58:19;;;;;;;7.90;2.88;;;5.10;76.70;;;;;;4990460;28;20394;-82
2022/02/11 11:00:46;;;;;;;6.82;3.40;;;5.00;76.40;;;;;;5004315;28;20044;-82
2022/02/11 11:03:12;;;;;;;13.90;3.83;;;5.00;76.60;;;;;;4997259;28;20038;-83
2022/02/11 11:05:42;;;;;;;9.73;2.60;;;4.90;77.00;;;;;;4997327;28;21054;-84
2022/02/11 11:08:16;;;;;;;9.10;3.47;;;4.90;76.60;;;;;;5013863;28;20045;-82
2022/02/11 11:10:45;;;;;;;6.03;3.05;;;4.80;76.20;;;;;;5014153;28;20026;-82
2022/02/11 11:13:16;;;;;;;9.95;3.10;;;4.60;77.50;;;;;;4997953;28;20041;-82
2022/02/11 11:15:43;;;;;;;12.05;3.88;;;4.60;76.40;;;;;;5015137;28;20022;-84
2022/02/11 11:18:13;;;;;;;7.10;3.58;;;4.50;76.60;;;;;;4999678;28;20084;-82
2022/02/11 11:20:42;;;;;;;6.93;3.03;;;4.50;77.10;;;;;;5017958;28;20036;-81
2022/02/11 11:23:22;;;;;;;7.88;2.97;;;4.60;77.30;;;;;;5039514;28;20052;-83
2022/02/11 11:26:05;;;;;;;13.57;5.60;;;4.60;76.60;;;;;;5039498;28;20018;-83
2022/02/11 11:28:52;;;;;;;7.78;3.47;;;4.60;77.40;;;;;;5019859;28;20550;-81
2022/02/11 11:31:25;;;;;;;7.53;2.58;;;4.60;77.00;;;;;;5017359;28;20021;-83
2022/02/11 11:34:12;;;;;;;14.15;4.57;;;4.50;75.90;;;;;;5033868;28;20039;-84
2022/02/11 11:36:42;;;;;;;7.72;3.35;;;4.50;75.90;;;;;;5035367;28;20033;-81
2022/02/11 11:39:08;;;;;;;9.90;4.15;;;4.50;76.20;;;;;;5035236;28;20029;-83
2022/02/11 11:41:35;;;;;;;7.05;3.55;;;4.50;76.30;;;;;;5018217;28;20048;-81
2022/02/11 11:44:40;;;;;;;7.10;3.25;;;4.50;76.00;;;;;;5024363;28;20033;-81
2022/02/11 11:47:06;;;;;;;4.55;2.58;;;4.50;75.70;;;;;;4986336;28;20554;-81
2022/02/11 11:49:47;;;;;;;6.70;3.17;;;4.50;74.90;;;;;;5025057;28;20026;-80
2022/02/11 11:52:13;;;;;;;12.05;3.50;;;4.50;74.60;;;;;;5035056;28;20077;-81
2022/02/11 11:54:40;;;;;;;5.93;2.80;;;4.40;74.40;;;;;;5035614;28;20029;-80
2022/02/11 11:57:08;;;;;;;8.00;3.03;;;4.40;74.90;;;;;;5036661;28;20022;-81
2022/02/11 11:59:45;;;;;;;8.90;2.72;;;4.50;74.60;;;;;;5042085;28;20034;-81
2022/02/11 12:02:12;;;;;;;;;;;4.50;72.60;;;;;;5053432;28;20033;-82
2022/02/11 12:04:44;;;;;;;7.43;3.17;;;4.30;72.70;;;;;;5028801;28;19905;-81
2022/02/11 12:07:12;;;;;;;16.20;7.25;;;4.20;72.40;;;;;;5040906;28;20033;-80
2022/02/11 12:09:47;;;;;;;6.00;2.85;;;4.10;72.10;;;;;;5036114;28;20022;-81
2022/02/11 12:12:18;;;;;;;9.63;2.90;;;4.10;72.50;;;;;;5017937;28;20032;-81
2022/02/11 12:14:46;;;;;;;8.68;2.78;;;4.20;72.70;;;;;;5016980;28;20112;-81
2022/02/11 12:17:15;;;;;;;;;;;4.20;72.20;;;;;;5035259;28;20018;-82
2022/02/11 12:19:44;;;;;;;9.15;3.10;;;4.10;72.30;;;;;;5018200;28;19913;-82
2022/02/11 12:22:12;;;;;;;6.22;4.13;;;4.00;71.80;;;;;;5033632;28;20045;-82
2022/02/11 12:27:31;;;;;;;12.75;3.50;;;4.00;72.20;;;;;;5034597;28;20089;-83
2022/02/11 12:30:02;;;;;;;12.70;4.28;;;4.00;71.60;;;;;;5016608;28;20025;-81
2022/02/11 12:32:33;;;;;;;5.43;2.97;;;3.90;71.40;;;;;;5035047;28;20036;-80
2022/02/11 12:35:02;;;;;;;7.10;2.20;;;3.90;71.30;;;;;;5017707;28;20064;-80
2022/02/11 12:37:30;;;;;;;6.93;2.03;;;3.80;70.80;;;;;;5017595;28;20029;-79
2022/02/11 12:40:05;;;;;;;6.28;2.22;;;3.70;71.20;;;;;;5037140;28;20025;-81
2022/02/11 12:42:31;;;;;;;5.65;2.03;;;3.70;71.40;;;;;;5017412;28;20128;-83
2022/02/11 12:44:59;;;;;;;5.40;2.25;;;3.70;70.70;;;;;;5034532;28;20061;-81
2022/02/11 12:47:25;;;;;;;7.05;3.20;;;3.70;71.60;;;;;;5034768;28;20386;-82
2022/02/11 12:49:51;;;;;;;6.28;2.30;;;3.80;72.10;;;;;;5034356;28;20072;-80
2022/02/11 12:52:21;;;;;;;4.55;2.20;;;3.80;72.10;;;;;;5015780;28;20426;-81
2022/02/11 12:55:10;;;;;;;9.02;3.83;;;3.80;72.00;;;;;;5034201;28;20025;-82
2022/02/11 12:57:40;;;;;;;9.48;4.00;;;3.80;71.50;;;;;;5033803;28;20527;-82
2022/02/11 13:00:08;;;;;;;5.18;1.95;;;3.80;72.00;;;;;;5034036;28;20034;-82
2022/02/11 13:02:35;;;;;;;;;;;3.90;72.10;;;;;;5034356;28;20041;-82
2022/02/11 13:05:04;;;;;;;13.38;2.45;;;3.90;72.10;;;;;;5016278;28;19952;-83
2022/02/11 13:07:30;;;;;;;7.13;2.45;;;3.80;71.80;;;;;;5015218;28;20021;-82
2022/02/11 13:09:57;;;;;;;5.63;3.10;;;3.80;71.40;;;;;;5033212;28;20025;-82
2022/02/11 13:12:33;;;;;;;7.70;2.97;;;3.80;71.60;;;;;;5034392;28;20025;-80
2022/02/11 13:15:02;;;;;;;6.43;3.47;;;3.90;71.80;;;;;;5033516;28;20121;-83
2022/02/11 13:17:30;;;;;;;7.50;2.60;;;3.80;71.40;;;;;;5033756;28;20025;-81
2022/02/11 13:20:08;;;;;;;;;;;3.70;71.50;;;;;;5015845;28;20407;-81
2022/02/11 13:22:34;;;;;;;8.43;2.70;;;3.70;71.70;;;;;;5032738;28;19921;-81
2022/02/11 13:25:00;;;;;;;6.30;2.00;;;3.60;72.10;;;;;;5014884;28;20033;-82
2022/02/11 13:27:56;;;;;;;15.27;3.15;;;3.60;72.60;;;;;;5033212;28;20029;-82
2022/02/11 13:30:27;;;;;;;5.30;2.47;;;3.70;73.00;;;;;;5015546;28;20026;-82
2022/02/11 13:32:55;;;;;;;6.70;3.03;;;3.60;72.90;;;;;;5032779;28;20372;-84
2022/02/11 13:35:22;;;;;;;7.28;2.83;;;3.60;73.30;;;;;;5033180;28;20033;-83
2022/02/11 13:37:59;;;;;;;5.10;2.47;;;3.60;73.50;;;;;;5032881;28;20022;-83
2022/02/11 13:40:27;;;;;;;12.30;2.58;;;3.50;73.50;;;;;;5032933;28;20028;-81
2022/02/11 13:42:59;;;;;;;7.03;3.28;;;3.50;73.90;;;;;;5035616;28;20037;-84
2022/02/11 13:45:26;;;;;;;5.30;2.35;;;3.50;74.20;;;;;;5032348;28;20021;-81
2022/02/11 13:48:09;;;;;;;8.88;2.42;;;3.40;74.20;;;;;;5033150;28;20044;-81
2022/02/11 13:50:58;;;;;;;6.97;2.38;;;3.40;73.80;;;;;;5035882;28;20018;-82
2022/02/11 13:53:53;;;;;;;5.97;2.92;;;3.40;74.10;;;;;;5039323;28;20030;-82
2022/02/11 13:56:39;;;;;;;9.25;3.03;;;3.40;74.50;;;;;;5035153;28;20459;-80
2022/02/11 13:59:26;;;;;;;7.17;2.73;;;3.40;74.60;;;;;;5032795;28;20031;-84
2022/02/11 14:02:01;;;;;;;7.93;3.15;;;3.40;74.60;;;;;;5015344;28;20655;-82
2022/02/11 14:04:32;;;;;;;10.27;4.43;;;3.40;74.70;;;;;;5034054;28;20033;-83
2022/02/11 14:06:59;;;;;;;5.90;2.28;;;3.40;74.60;;;;;;5035032;28;20021;-81
2022/02/11 14:09:33;;;;;;;9.00;3.40;;;3.30;73.90;;;;;;5040640;28;20028;-80
2022/02/11 14:12:00;;;;;;;7.40;3.30;;;3.30;74.50;;;;;;5027359;28;20396;-80
2022/02/11 14:14:26;;;;;;;6.07;3.25;;;3.30;74.70;;;;;;5046872;28;20045;-80
2022/02/11 14:16:52;;;;;;;4.93;2.53;;;3.30;74.70;;;;;;5037708;28;20045;-81
2022/02/11 14:19:24;;;;;;;10.07;3.00;;;3.40;75.00;;;;;;5036225;28;20021;-82
2022/02/11 14:21:51;;;;;;;10.05;4.93;;;3.30;74.90;;;;;;5034348;28;20017;-80
2022/02/11 14:24:17;;;;;;;8.50;3.80;;;3.30;75.10;;;;;;5016020;28;20061;-81
2022/02/11 14:26:49;;;;;;;7.88;3.95;;;3.30;75.50;;;;;;5015476;28;20029;-81
2022/02/11 14:29:15;;;;;;;6.22;2.55;;;3.30;75.80;;;;;;5015623;28;20021;-82
2022/02/11 14:31:42;;;;;;;7.25;3.88;;;3.30;75.60;;;;;;5033323;28;20025;-82
2022/02/11 14:34:10;;;;;;;11.68;3.97;;;3.30;75.70;;;;;;5033240;28;20748;-82
2022/02/11 14:36:38;;;;;;;4.28;2.63;;;3.20;75.80;;;;;;5036839;28;20033;-80
2022/02/11 14:39:14;;;;;;;5.25;2.90;;;3.30;75.90;;;;;;5033510;28;20033;-82
2022/02/11 14:41:48;;;;;;;20.33;7.50;;;3.20;76.00;;;;;;5017093;28;20022;-80
2022/02/11 14:44:27;;;;;;;5.13;2.92;;;3.20;76.30;;;;;;5016715;28;20314;-81
2022/02/11 14:46:55;;;;;;;9.93;4.10;;;3.20;76.20;;;;;;5016599;28;20052;-82
2022/02/11 14:49:22;;;;;;;8.27;3.05;;;3.20;76.20;;;;;;5012166;28;20029;-80
2022/02/11 14:51:54;;;;;;;5.55;3.13;;;3.20;76.40;;;;;;5019114;28;20100;-80
2022/02/11 14:54:20;;;;;;;5.57;2.40;;;3.20;76.60;;;;;;5036671;28;20109;-80
2022/02/11 14:56:50;;;;;;;5.75;2.72;;;3.20;76.40;;;;;;5018207;28;20112;-80
2022/02/11 14:59:16;;;;;;;10.95;2.60;;;3.20;76.50;;;;;;5036157;28;20108;-81
2022/02/11 15:01:43;;;;;;;3.90;2.42;;;3.10;76.50;;;;;;5036271;28;20393;-80
2022/02/11 15:04:10;;;;;;;5.53;2.38;;;3.10;76.90;;;;;;5035009;28;20037;-83
2022/02/11 15:06:36;;;;;;;5.32;2.47;;;3.10;76.70;;;;;;5018348;28;20052;-82
2022/02/11 15:09:03;;;;;;;6.43;2.60;;;3.00;76.70;;;;;;5038680;28;20129;-80
2022/02/11 15:11:33;;;;;;;7.63;2.95;;;3.10;76.80;;;;;;5038050;28;20048;-81
2022/02/11 15:13:59;;;;;;;5.00;3.25;;;3.00;76.90;;;;;;5017483;28;20510;-81
2022/02/11 15:16:28;;;;;;;7.95;3.60;;;3.00;77.40;;;;;;5036040;28;20105;-82
2022/02/11 15:18:54;;;;;;;9.77;3.30;;;3.00;77.50;;;;;;5035208;28;20033;-83
2022/02/11 15:21:21;;;;;;;8.90;3.25;;;3.00;77.50;;;;;;5034268;28;20103;-82
2022/02/11 15:23:48;;;;;;;11.55;2.85;;;3.00;77.10;;;;;;5017927;28;20037;-82
2022/02/11 15:26:16;;;;;;;6.97;2.78;;;3.00;77.20;;;;;;5018254;28;20606;-81
2022/02/11 15:28:42;;;;;;;6.43;2.58;;;3.00;77.20;;;;;;5018744;28;20034;-79
2022/02/11 15:31:11;;;;;;;9.73;2.83;;;3.00;77.30;;;;;;5035914;28;20115;-81
2022/02/11 15:33:38;;;;;;;6.90;2.47;;;3.00;77.20;;;;;;5035470;28;20031;-81
2022/02/11 15:36:05;;;;;;;8.35;3.08;;;3.00;76.70;;;;;;5035230;28;20037;-81
2022/02/11 15:38:31;;;;;;;7.30;2.33;;;3.00;77.00;;;;;;5023461;28;20030;-81
2022/02/11 15:40:58;;;;;;;13.80;4.28;;;3.00;77.10;;;;;;5015938;28;20033;-81
2022/02/11 15:43:23;;;;;;;9.90;2.70;;;3.00;77.30;;;;;;5017982;28;20431;-81
2022/02/11 15:45:49;;;;;;;5.95;3.30;;;3.00;77.30;;;;;;5004918;28;20025;-81
2022/02/11 15:48:15;;;;;;;7.95;3.00;;;3.00;77.50;;;;;;5000166;28;20102;-81
2022/02/11 15:50:42;;;;;;;6.97;3.50;;;3.00;77.50;;;;;;5024451;28;20024;-81
2022/02/11 15:53:10;;;;;;;7.38;2.97;;;3.00;77.60;;;;;;5035630;28;20116;-81
2022/02/11 15:55:37;;;;;;;8.23;3.25;;;3.00;78.00;;;;;;5034004;28;20104;-81
2022/02/11 15:58:03;;;;;;;4.78;3.03;;;3.00;77.70;;;;;;5034702;28;20045;-80
2022/02/11 16:00:29;;;;;;;10.25;3.53;;;2.90;77.70;;;;;;5034873;28;20115;-82
2022/02/11 16:02:55;;;;;;;4.68;2.80;;;2.90;77.70;;;;;;5034166;28;20543;-80
2022/02/11 16:05:23;;;;;;;6.70;2.65;;;2.90;78.00;;;;;;5034908;28;20088;-80
2022/02/11 16:07:54;;;;;;;9.70;2.75;;;2.90;78.10;;;;;;5034898;28;20514;-81
2022/02/11 16:10:21;;;;;;;8.20;3.33;;;2.90;77.90;;;;;;5016284;28;20021;-82
2022/02/11 16:12:47;;;;;;;10.07;3.88;;;2.90;77.90;;;;;;5016821;28;20053;-81
2022/02/11 16:15:14;;;;;;;12.32;4.43;;;2.90;77.90;;;;;;5035506;28;20509;-81
2022/02/11 16:20:38;;;;;;;9.32;3.10;;;2.90;77.60;;;;;;5035107;28;20292;-80
2022/02/11 16:23:06;;;;;;;6.80;3.35;;;2.90;77.40;;;;;;5036583;28;20036;-81
2022/02/11 16:25:35;;;;;;;6.97;2.33;;;2.80;77.50;;;;;;5048283;28;20021;-80
2022/02/11 16:28:04;;;;;;;6.90;2.58;;;2.90;77.50;;;;;;5044684;28;20030;-81
2022/02/11 16:30:30;;;;;;;8.48;3.97;;;2.80;77.60;;;;;;5027657;28;20053;-80
2022/02/11 16:32:57;;;;;;;3.10;2.55;;;2.90;77.80;;;;;;5019077;28;20022;-81
2022/02/11 16:35:23;;;;;;;7.25;4.43;;;2.90;77.70;;;;;;5015737;28;20515;-82
2022/02/11 16:37:49;;;;;;;6.38;3.58;;;2.90;77.80;;;;;;5030899;28;20038;-79
2022/02/11 16:40:15;;;;;;;6.68;3.33;;;2.90;77.70;;;;;;5034969;28;20348;-82
2022/02/11 16:42:44;;;;;;;3.80;2.42;;;2.90;77.80;;;;;;5017108;28;20101;-81
2022/02/11 16:45:10;;;;;;;10.85;4.40;;;2.90;77.50;;;;;;5033439;28;20079;-83
2022/02/11 16:47:36;;;;;;;13.20;4.37;;;2.80;77.50;;;;;;5033853;28;20398;-80
2022/02/11 16:50:07;;;;;;;6.82;3.80;;;2.80;77.80;;;;;;5033904;28;20014;-81
2022/02/11 16:52:33;;;;;;;8.95;3.60;;;2.80;78.10;;;;;;5016326;28;20044;-80
2022/02/11 16:55:10;;;;;;;10.10;3.15;;;2.80;78.00;;;;;;5016147;28;20490;-80
2022/02/11 16:57:36;;;;;;;3.85;2.20;;;2.80;78.10;;;;;;5016065;28;20390;-79
2022/02/11 17:00:08;;;;;;;9.38;2.67;;;2.90;78.00;;;;;;5032931;28;20021;-79
2022/02/11 17:02:34;;;;;;;4.82;2.53;;;2.80;78.10;;;;;;5033788;28;20048;-80